createdAt,value
2019-02-05T00:01:04.013Z,28.55
2019-02-05T00:03:30.397Z,31.68
2019-02-05T00:05:56.744Z,35.48
2019-02-05T00:08:23.234Z,30.52
2019-02-05T00:10:49.603Z,32.30
2019-02-05T00:13:15.880Z,31.20
2019-02-05T00:15:42.256Z,28.17
2019-02-05T00:18:08.639Z,36.03
2019-02-05T00:20:34.987Z,29.63
2019-02-05T00:23:01.483Z,28.45
2019-02-05T00:25:27.965Z,27.22
2019-02-05T00:27:54.413Z,30.68
2019-02-05T00:30:20.835Z,28.83
2019-02-05T00:32:47.096Z,28.95
2019-02-05T00:35:13.654Z,23.87
2019-02-05T00:37:40.183Z,36.08
2019-02-05T00:40:08.720Z,30.27
2019-02-05T00:42:35.072Z,25.52
2019-02-05T00:45:02.272Z,49.50
2019-02-05T00:47:28.521Z,35.05
2019-02-05T00:49:55.095Z,25.35
2019-02-05T00:52:21.340Z,24.85
2019-02-05T00:54:47.646Z,25.12
2019-02-05T00:57:13.897Z,28.40
2019-02-05T00:59:40.248Z,26.82
2019-02-05T01:02:07.036Z,27.65
2019-02-05T01:04:33.294Z,22.58
2019-02-05T01:06:59.535Z,27.73
2019-02-05T01:09:26.219Z,30.30
2019-02-05T01:11:52.480Z,31.65
2019-02-05T01:14:18.874Z,35.25
2019-02-05T01:16:45.239Z,33.80
2019-02-05T01:19:11.616Z,40.78
2019-02-05T01:21:38.005Z,34.40
2019-02-05T01:24:04.373Z,34.48
2019-02-05T01:26:31.272Z,26.80
2019-02-05T01:28:58.075Z,24.37
2019-02-05T01:31:24.329Z,28.15
2019-02-05T01:33:50.695Z,26.80
2019-02-05T01:36:17.158Z,27.58
2019-02-05T01:38:43.428Z,26.42
2019-02-05T01:41:09.699Z,25.45
2019-02-05T01:43:36.181Z,32.05
2019-02-05T01:46:02.647Z,26.10
2019-02-05T01:48:28.904Z,26.55
2019-02-05T01:50:55.294Z,25.88
2019-02-05T01:53:21.671Z,29.02
2019-02-05T01:55:48.024Z,26.40
2019-02-05T01:58:14.280Z,24.07
2019-02-05T02:00:40.880Z,27.35
2019-02-05T02:03:07.367Z,25.52
2019-02-05T02:05:33.820Z,28.15
2019-02-05T02:08:00.587Z,23.87
2019-02-05T02:10:29.675Z,23.80
2019-02-05T02:12:56.623Z,26.37
2019-02-05T02:15:23.065Z,28.62
2019-02-05T02:17:49.496Z,24.20
2019-02-05T02:20:18.106Z,29.15
2019-02-05T02:23:04.459Z,25.27
2019-02-05T02:25:30.723Z,28.75
2019-02-05T02:27:57.285Z,25.23
2019-02-05T02:30:32.496Z,25.97
2019-02-05T02:32:58.864Z,38.38
2019-02-05T02:35:25.229Z,24.43
2019-02-05T02:37:51.895Z,26.57
2019-02-05T02:40:18.351Z,28.05
2019-02-05T02:42:44.854Z,30.92
2019-02-05T02:45:12.586Z,24.20
2019-02-05T02:47:38.974Z,31.77
2019-02-05T02:50:08.971Z,33.05
2019-02-05T02:52:35.562Z,29.55
2019-02-05T02:55:03.429Z,29.70
2019-02-05T02:57:29.803Z,23.12
2019-02-05T02:59:56.283Z,28.65
2019-02-05T03:02:22.644Z,32.95
2019-02-05T03:04:49.123Z,34.03
2019-02-05T03:07:15.602Z,24.75
2019-02-05T03:09:42.108Z,22.62
2019-02-05T03:12:08.560Z,26.23
2019-02-05T03:14:34.814Z,32.15
2019-02-05T03:17:01.592Z,27.02
2019-02-05T03:19:27.874Z,34.43
2019-02-05T03:21:54.233Z,27.90
2019-02-05T03:24:20.524Z,28.40
2019-02-05T03:26:46.928Z,29.18
2019-02-05T03:29:13.213Z,39.23
2019-02-05T03:31:39.543Z,52.10
2019-02-05T03:34:05.946Z,48.48
2019-02-05T03:36:32.324Z,31.15
2019-02-05T03:38:58.729Z,29.57
2019-02-05T03:41:25.380Z,36.80
2019-02-05T03:43:51.773Z,53.63
2019-02-05T03:46:19.024Z,26.00
2019-02-05T03:48:46.534Z,35.70
2019-02-05T03:51:19.697Z,36.68
2019-02-05T03:54:05.178Z,34.50
2019-02-05T03:56:44.576Z,34.73
2019-02-05T03:59:31.687Z,41.63
2019-02-05T04:02:01.785Z,47.55
2019-02-05T04:04:41.240Z,44.60
2019-02-05T04:07:14.356Z,42.35
2019-02-05T04:10:17.501Z,65.65
2019-02-05T04:13:06.176Z,39.65
2019-02-05T04:15:54.435Z,30.17
2019-02-05T04:18:42.311Z,29.32
2019-02-05T04:21:27.215Z,27.22
2019-02-05T04:24:27.680Z,43.00
2019-02-05T04:27:19.154Z,36.08
2019-02-05T04:29:52.437Z,59.35
2019-02-05T04:32:28.072Z,28.65
2019-02-05T04:35:17.878Z,28.45
2019-02-05T04:38:07.728Z,27.98
2019-02-05T04:40:37.820Z,25.32
2019-02-05T04:43:10.941Z,28.35
2019-02-05T04:46:02.636Z,30.05
2019-02-05T04:48:49.355Z,37.15
2019-02-05T04:51:22.400Z,30.02
2019-02-05T04:54:09.011Z,28.65
2019-02-05T04:56:48.189Z,32.05
2019-02-05T04:59:21.045Z,26.60
2019-02-05T05:01:51.125Z,28.23
2019-02-05T05:04:39.863Z,35.50
2019-02-05T05:07:22.184Z,38.05
2019-02-05T05:09:48.369Z,29.52
2019-02-05T05:12:14.837Z,33.60
2019-02-05T05:14:41.385Z,29.50
2019-02-05T05:17:07.797Z,28.90
2019-02-05T05:19:34.294Z,28.83
2019-02-05T05:22:01.676Z,27.05
2019-02-05T05:24:28.260Z,30.65
2019-02-05T05:26:54.553Z,26.23
2019-02-05T05:29:21.019Z,29.30
2019-02-05T05:31:50.025Z,30.85
2019-02-05T05:34:16.709Z,30.23
2019-02-05T05:36:48.736Z,28.27
2019-02-05T05:39:15.457Z,30.02
2019-02-05T05:41:41.967Z,30.52
2019-02-05T05:44:09.557Z,31.17
2019-02-05T05:46:36.113Z,28.73
2019-02-05T05:49:02.604Z,29.48
2019-02-05T05:51:28.876Z,28.38
2019-02-05T05:53:56.934Z,38.45
2019-02-05T05:56:23.320Z,27.73
2019-02-05T05:58:49.587Z,25.43
2019-02-05T06:01:15.872Z,29.77
2019-02-05T06:03:42.111Z,34.40
2019-02-05T06:06:08.738Z,31.60
2019-02-05T06:08:35.191Z,29.12
2019-02-05T06:11:01.562Z,25.68
2019-02-05T06:13:28.005Z,27.35
2019-02-05T06:15:54.876Z,29.45
2019-02-05T06:18:21.403Z,27.13
2019-02-05T06:20:47.881Z,26.90
2019-02-05T06:23:14.253Z,28.38
2019-02-05T06:25:40.821Z,31.37
2019-02-05T06:28:07.096Z,28.17
2019-02-05T06:30:33.564Z,30.97
2019-02-05T06:33:00.066Z,28.75
2019-02-05T06:35:26.562Z,34.27
2019-02-05T06:37:53.466Z,36.60
2019-02-05T06:40:20.592Z,29.87
2019-02-05T06:42:47.284Z,30.30
2019-02-05T06:45:14.654Z,31.17
2019-02-05T06:47:41.140Z,30.48
2019-02-05T06:50:10.266Z,35.23
2019-02-05T06:52:36.810Z,29.27
2019-02-05T06:55:05.785Z,29.87
2019-02-05T06:57:32.272Z,33.98
2019-02-05T06:59:58.639Z,34.10
2019-02-05T07:02:25.135Z,31.20
2019-02-05T07:04:51.561Z,33.08
2019-02-05T07:07:17.938Z,35.17
2019-02-05T07:09:44.451Z,33.98
2019-02-05T07:12:10.890Z,32.78
2019-02-05T07:14:37.357Z,33.70
2019-02-05T07:17:03.964Z,34.98
2019-02-05T07:19:30.354Z,39.00
2019-02-05T07:21:56.848Z,42.40
2019-02-05T07:24:23.272Z,35.88
2019-02-05T07:26:49.741Z,30.62
2019-02-05T07:29:16.209Z,37.30
2019-02-05T07:31:42.737Z,35.83
2019-02-05T07:34:09.243Z,35.90
2019-02-05T07:36:35.626Z,39.75
2019-02-05T07:39:05.629Z,35.10
2019-02-05T07:41:32.200Z,35.30
2019-02-05T07:43:58.489Z,29.72
2019-02-05T07:46:24.864Z,33.48
2019-02-05T07:48:51.362Z,37.05
2019-02-05T07:51:17.872Z,45.38
2019-02-05T07:53:44.393Z,32.42
2019-02-05T07:56:12.914Z,39.40
2019-02-05T07:58:39.247Z,37.95
2019-02-05T08:01:05.736Z,32.93
2019-02-05T08:03:32.601Z,33.30
2019-02-05T08:05:59.007Z,40.55
2019-02-05T08:08:25.577Z,47.33
2019-02-05T08:10:52.073Z,37.08
2019-02-05T08:13:18.480Z,38.13
2019-02-05T08:15:45.132Z,30.35
2019-02-05T08:18:11.523Z,34.43
2019-02-05T08:20:37.949Z,37.05
2019-02-05T08:23:04.436Z,35.92
2019-02-05T08:25:30.727Z,35.73
2019-02-05T08:27:57.817Z,41.35
2019-02-05T08:30:28.065Z,37.58
2019-02-05T08:32:54.428Z,37.95
2019-02-05T08:35:20.961Z,36.40
2019-02-05T08:37:47.429Z,43.00
2019-02-05T08:40:19.679Z,46.28
2019-02-05T08:42:46.166Z,42.48
2019-02-05T08:45:15.562Z,38.83
2019-02-05T08:47:42.389Z,38.78
2019-02-05T08:50:12.459Z,32.80
2019-02-05T08:52:38.755Z,37.80
2019-02-05T08:55:08.551Z,38.78
2019-02-05T08:57:35.102Z,33.33
2019-02-05T09:00:01.595Z,35.28
2019-02-05T09:02:28.001Z,34.43
2019-02-05T09:04:54.346Z,38.78
2019-02-05T09:07:21.049Z,38.85
2019-02-05T09:09:47.369Z,36.08
2019-02-05T09:12:13.702Z,39.55
2019-02-05T09:14:40.180Z,41.88
2019-02-05T09:17:06.477Z,40.23
2019-02-05T09:19:32.753Z,39.03
2019-02-05T09:21:59.381Z,45.03
2019-02-05T09:24:25.916Z,39.95
2019-02-05T09:26:52.320Z,40.83
2019-02-05T09:29:18.780Z,45.73
2019-02-05T09:31:45.242Z,49.55
2019-02-05T09:34:11.620Z,52.83
2019-02-05T09:36:37.953Z,41.80
2019-02-05T09:39:05.850Z,52.30
2019-02-05T09:41:32.305Z,53.98
2019-02-05T09:43:58.725Z,45.52
2019-02-05T09:46:25.071Z,48.87
2019-02-05T09:48:51.471Z,46.15
2019-02-05T09:51:18.370Z,61.25
2019-02-05T09:53:44.662Z,51.75
2019-02-05T09:56:11.053Z,50.73
2019-02-05T09:58:37.431Z,48.23
2019-02-05T10:01:06.505Z,57.90
2019-02-05T10:03:33.040Z,52.43
2019-02-05T10:05:59.740Z,60.50
2019-02-05T10:08:26.697Z,56.48
2019-02-05T10:10:53.226Z,60.63
2019-02-05T10:13:20.029Z,50.23
2019-02-05T10:15:46.635Z,59.90
2019-02-05T10:18:13.138Z,62.15
2019-02-05T10:20:39.796Z,59.55
2019-02-05T10:23:06.789Z,61.23
2019-02-05T10:25:33.381Z,55.20
2019-02-05T10:27:59.843Z,59.18
2019-02-05T10:30:32.457Z,51.00
2019-02-05T10:33:00.743Z,61.88
2019-02-05T10:35:27.331Z,58.17
2019-02-05T10:37:53.705Z,60.03
2019-02-05T10:40:21.191Z,66.15
2019-02-05T10:43:21.475Z,66.90
2019-02-05T10:45:27.491Z,58.30
2019-02-05T10:47:53.853Z,64.47
2019-02-05T10:50:20.715Z,60.12
2019-02-05T10:52:49.584Z,59.27
2019-02-05T10:55:17.891Z,57.43
2019-02-05T10:57:45.084Z,65.83
2019-02-05T11:00:15.139Z,68.70
2019-02-05T11:02:41.690Z,57.25
2019-02-05T11:05:11.570Z,62.20
2019-02-05T11:07:37.834Z,68.85
2019-02-05T11:10:08.059Z,66.60
2019-02-05T11:12:34.313Z,70.00
2019-02-05T11:15:00.575Z,65.55
2019-02-05T11:17:26.871Z,68.22
2019-02-05T11:19:53.337Z,65.30
2019-02-05T11:22:19.737Z,65.72
2019-02-05T11:24:46.129Z,63.73
2019-02-05T11:27:12.501Z,63.80
2019-02-05T11:29:39.189Z,61.28
2019-02-05T11:32:05.469Z,67.62
2019-02-05T11:34:31.845Z,61.98
2019-02-05T11:36:58.109Z,56.80
2019-02-05T11:39:24.487Z,51.83
2019-02-05T11:41:50.869Z,62.88
2019-02-05T11:44:17.375Z,63.17
2019-02-05T11:46:43.726Z,61.37
2019-02-05T11:49:10.093Z,70.72
2019-02-05T11:51:36.370Z,72.32
2019-02-05T11:54:03.056Z,55.63
2019-02-05T11:56:29.548Z,51.02
2019-02-05T11:58:55.911Z,56.92
2019-02-05T12:01:22.794Z,65.45
2019-02-05T12:03:49.203Z,68.47
2019-02-05T12:06:15.692Z,59.95
2019-02-05T12:08:42.222Z,61.18
2019-02-05T12:11:08.576Z,60.20
2019-02-05T12:13:34.935Z,58.55
2019-02-05T12:16:01.624Z,61.80
2019-02-05T12:18:27.979Z,54.33
2019-02-05T12:20:54.361Z,60.92
2019-02-05T12:23:20.819Z,59.65
2019-02-05T12:25:47.272Z,54.30
2019-02-05T12:28:13.564Z,57.70
2019-02-05T12:30:44.833Z,58.02
2019-02-05T12:33:09.507Z,60.63
2019-02-05T12:35:36.064Z,59.85
2019-02-05T12:38:04.322Z,65.40
2019-02-05T12:40:30.605Z,73.40
2019-02-05T12:42:57.369Z,50.80
2019-02-05T12:45:26.120Z,65.45
2019-02-05T12:47:52.607Z,55.48
2019-02-05T12:50:21.120Z,43.25
2019-02-05T12:52:47.598Z,46.42
2019-02-05T12:55:16.215Z,46.25
2019-02-05T12:57:42.860Z,51.15
2019-02-05T13:00:32.726Z,55.95
2019-02-05T13:02:59.520Z,52.98
2019-02-05T13:05:26.181Z,59.75
2019-02-05T13:07:52.657Z,50.90
2019-02-05T13:10:31.509Z,51.20
2019-02-05T13:12:58.282Z,49.67
2019-02-05T13:15:24.544Z,43.68
2019-02-05T13:17:51.123Z,41.42
2019-02-05T13:20:21.193Z,45.73
2019-02-05T13:22:47.575Z,47.25
2019-02-05T13:25:19.333Z,40.23
2019-02-05T13:27:45.902Z,42.43
2019-02-05T13:30:18.200Z,38.70
2019-02-05T13:32:44.464Z,39.33
2019-02-05T13:35:11.654Z,31.05
2019-02-05T13:37:38.219Z,33.80
2019-02-05T13:40:08.609Z,31.40
2019-02-05T13:42:35.103Z,35.60
2019-02-05T13:45:01.435Z,13.00
2019-02-05T13:47:27.933Z,50.73
2019-02-05T13:49:54.175Z,47.80
2019-02-05T13:52:20.637Z,25.88
2019-02-05T13:55:07.854Z,37.45
2019-02-05T13:57:34.104Z,17.77
2019-02-05T14:00:00.442Z,17.07
2019-02-05T14:02:26.950Z,24.18
2019-02-05T14:04:53.356Z,22.32
2019-02-05T14:07:19.768Z,29.50
2019-02-05T14:09:46.122Z,22.07
2019-02-05T14:12:12.516Z,29.12
2019-02-05T14:14:38.985Z,36.10
2019-02-05T14:17:05.435Z,22.52
2019-02-05T14:19:31.830Z,21.30
2019-02-05T14:21:58.392Z,25.65
2019-02-05T14:24:24.654Z,24.52
2019-02-05T14:26:50.953Z,22.05
2019-02-05T14:29:17.721Z,25.80
2019-02-05T14:31:43.933Z,20.90
2019-02-05T14:34:10.780Z,23.55
2019-02-05T14:36:37.303Z,26.27
2019-02-05T14:39:06.806Z,19.32
2019-02-05T14:41:33.063Z,23.02
2019-02-05T14:43:59.352Z,23.67
2019-02-05T14:46:25.740Z,24.57
2019-02-05T14:48:52.003Z,25.35
2019-02-05T14:51:18.397Z,23.20
2019-02-05T14:53:45.006Z,20.77
2019-02-05T14:56:11.523Z,25.62
2019-02-05T14:58:37.975Z,25.40
2019-02-05T15:01:04.363Z,22.82
2019-02-05T15:03:30.692Z,29.45
2019-02-05T15:05:57.111Z,26.70
2019-02-05T15:08:23.394Z,26.10
2019-02-05T15:10:49.765Z,24.43
2019-02-05T15:13:16.275Z,24.92
2019-02-05T15:15:42.652Z,23.10
2019-02-05T15:18:09.135Z,23.80
2019-02-05T15:20:40.969Z,28.98
2019-02-05T15:23:07.849Z,27.13
2019-02-05T15:25:34.537Z,28.40
2019-02-05T15:28:00.877Z,25.52
2019-02-05T15:30:30.493Z,25.68
2019-02-05T15:33:01.393Z,24.95
2019-02-05T15:35:28.060Z,25.75
2019-02-05T15:37:54.560Z,27.73
2019-02-05T15:40:21.138Z,26.40
2019-02-05T15:42:47.614Z,25.52
2019-02-05T15:45:14.712Z,28.40
2019-02-05T15:47:41.152Z,23.05
2019-02-05T15:50:10.510Z,28.50
2019-02-05T15:52:37.126Z,29.50
2019-02-05T15:55:06.671Z,28.67
2019-02-05T15:57:33.061Z,29.45
2019-02-05T15:59:59.355Z,23.65
2019-02-05T16:02:25.736Z,28.60
2019-02-05T16:04:52.558Z,28.62
2019-02-05T16:07:18.836Z,29.32
2019-02-05T16:09:45.283Z,22.50
2019-02-05T16:12:11.754Z,27.10
2019-02-05T16:14:38.908Z,23.77
2019-02-05T16:17:05.282Z,31.90
2019-02-05T16:19:31.524Z,28.60
2019-02-05T16:21:57.911Z,25.75
2019-02-05T16:24:24.696Z,29.57
2019-02-05T16:26:51.040Z,32.25
2019-02-05T16:29:17.331Z,28.60
2019-02-05T16:31:43.688Z,29.05
2019-02-05T16:34:10.076Z,30.10
2019-02-05T16:36:36.433Z,27.25
2019-02-05T16:39:06.540Z,26.25
2019-02-05T16:41:32.816Z,26.65
2019-02-05T16:43:59.597Z,23.83
2019-02-05T16:46:25.908Z,25.35
2019-02-05T16:48:52.188Z,24.98
2019-02-05T16:51:18.652Z,28.40
2019-02-05T16:53:45.011Z,24.98
2019-02-05T16:56:11.449Z,22.87
2019-02-05T16:58:37.899Z,28.45
2019-02-05T17:01:04.380Z,27.48
2019-02-05T17:03:31.193Z,24.50
2019-02-05T17:05:57.729Z,27.93
2019-02-05T17:08:24.117Z,30.72
2019-02-05T17:10:50.422Z,27.52
2019-02-05T17:13:16.789Z,30.43
2019-02-05T17:15:43.085Z,31.27
2019-02-05T17:18:09.567Z,32.17
2019-02-05T17:20:36.512Z,25.97
2019-02-05T17:23:03.854Z,29.57
2019-02-05T17:25:30.390Z,36.48
2019-02-05T17:27:58.868Z,38.13
2019-02-05T17:30:27.945Z,33.48
2019-02-05T17:32:54.613Z,31.97
2019-02-05T17:35:21.116Z,29.37
2019-02-05T17:37:47.551Z,28.45
2019-02-05T17:40:19.858Z,40.85
2019-02-05T17:42:46.564Z,64.30
2019-02-05T17:45:18.697Z,40.00
2019-02-05T17:47:45.525Z,30.57
2019-02-05T17:50:12.105Z,31.48
2019-02-05T17:52:38.391Z,42.55
2019-02-05T17:55:08.265Z,38.50
2019-02-05T17:57:35.059Z,36.80
2019-02-05T18:00:10.915Z,25.95
2019-02-05T18:02:37.446Z,28.35
2019-02-05T18:05:07.622Z,30.68
2019-02-05T18:07:34.027Z,35.25
2019-02-05T18:10:00.359Z,35.73
2019-02-05T18:12:27.117Z,31.65
2019-02-05T18:14:53.516Z,29.70
2019-02-05T18:17:19.793Z,29.70
2019-02-05T18:19:46.104Z,27.75
2019-02-05T18:22:12.632Z,32.73
2019-02-05T18:24:38.993Z,34.88
2019-02-05T18:27:05.409Z,25.25
2019-02-05T18:29:31.786Z,30.02
2019-02-05T18:31:58.236Z,33.55
2019-02-05T18:34:24.701Z,25.37
2019-02-05T18:36:51.164Z,27.93
2019-02-05T18:39:17.573Z,30.12
2019-02-05T18:41:44.006Z,27.45
2019-02-05T18:44:10.370Z,29.55
2019-02-05T18:46:36.654Z,36.35
2019-02-05T18:49:04.964Z,32.50
2019-02-05T18:51:31.601Z,30.48
2019-02-05T18:53:58.125Z,30.82
2019-02-05T18:56:24.600Z,30.95
2019-02-05T18:58:51.031Z,37.45
2019-02-05T19:01:17.513Z,38.30
2019-02-05T19:03:43.968Z,28.27
2019-02-05T19:06:10.365Z,31.77
2019-02-05T19:08:36.764Z,33.75
2019-02-05T19:11:03.247Z,30.40
2019-02-05T19:13:29.565Z,35.55
2019-02-05T19:15:55.975Z,30.40
2019-02-05T19:18:22.220Z,33.30
2019-02-05T19:20:48.635Z,30.25
2019-02-05T19:23:14.983Z,38.75
2019-02-05T19:25:46.193Z,35.83
2019-02-05T19:28:14.472Z,32.20
2019-02-05T19:30:42.981Z,31.17
2019-02-05T19:33:09.261Z,40.48
2019-02-05T19:35:35.625Z,32.00
2019-02-05T19:38:02.035Z,29.02
2019-02-05T19:40:28.416Z,28.55
2019-02-05T19:42:54.926Z,33.80
2019-02-05T19:45:26.087Z,29.70
2019-02-05T19:47:52.916Z,29.35
2019-02-05T19:50:20.166Z,31.87
2019-02-05T19:52:46.449Z,29.02
2019-02-05T19:55:12.974Z,30.10
2019-02-05T19:57:39.681Z,29.60
2019-02-05T20:00:12.940Z,32.93
2019-02-05T20:02:39.224Z,33.73
2019-02-05T20:05:07.540Z,32.73
2019-02-05T20:07:36.324Z,29.72
2019-02-05T20:10:02.209Z,29.45
2019-02-05T20:12:28.800Z,25.12
2019-02-05T20:14:55.316Z,31.57
2019-02-05T20:17:21.751Z,26.00
2019-02-05T20:19:48.409Z,26.45
2019-02-05T20:22:14.701Z,29.40
2019-02-05T20:24:41.546Z,32.80
2019-02-05T20:27:08.267Z,28.02
2019-02-05T20:29:34.741Z,29.90
2019-02-05T20:32:01.227Z,37.05
2019-02-05T20:34:27.668Z,29.72
2019-02-05T20:36:54.062Z,28.70
2019-02-05T20:39:20.525Z,25.48
2019-02-05T20:41:46.947Z,27.67
2019-02-05T20:44:13.343Z,27.87
2019-02-05T20:46:39.718Z,21.87
2019-02-05T20:49:06.223Z,25.62
2019-02-05T20:51:32.631Z,30.25
2019-02-05T20:53:58.906Z,27.60
2019-02-05T20:56:25.423Z,27.60
2019-02-05T20:58:51.735Z,29.37
2019-02-05T21:01:18.010Z,33.48
2019-02-05T21:03:44.525Z,26.02
2019-02-05T21:06:11.000Z,27.37
2019-02-05T21:08:37.284Z,30.68
2019-02-05T21:11:04.358Z,27.80
2019-02-05T21:13:30.726Z,31.48
2019-02-05T21:15:57.107Z,33.98
2019-02-05T21:18:23.815Z,36.17
2019-02-05T21:20:50.112Z,34.33
2019-02-05T21:23:16.484Z,31.60
2019-02-05T21:25:42.882Z,37.90
2019-02-05T21:28:09.272Z,35.00
2019-02-05T21:30:35.568Z,32.23
2019-02-05T21:33:01.963Z,33.85
2019-02-05T21:35:28.472Z,37.10
2019-02-05T21:37:55.147Z,44.60
2019-02-05T21:40:25.678Z,46.08
2019-02-05T21:42:52.164Z,50.03
2019-02-05T21:45:25.288Z,38.65
2019-02-05T21:47:51.601Z,40.55
2019-02-05T21:50:21.947Z,43.98
2019-02-05T21:52:48.770Z,41.53
2019-02-05T21:55:19.720Z,42.00
2019-02-05T21:58:07.777Z,29.92
2019-02-05T22:00:35.013Z,39.55
2019-02-05T22:03:01.724Z,40.80
2019-02-05T22:05:29.622Z,34.90
2019-02-05T22:07:56.260Z,34.98
2019-02-05T22:10:23.145Z,39.05
2019-02-05T22:12:49.536Z,35.88
2019-02-05T22:15:17.709Z,31.48
2019-02-05T22:17:44.303Z,37.35
2019-02-05T22:20:15.724Z,36.83
2019-02-05T22:22:42.134Z,37.17
2019-02-05T22:25:21.293Z,37.35
2019-02-05T22:27:47.776Z,34.38
2019-02-05T22:30:20.853Z,32.35
2019-02-05T22:32:47.329Z,37.75
2019-02-05T22:35:13.942Z,38.73
2019-02-05T22:37:40.795Z,39.53
2019-02-05T22:40:09.963Z,46.65
2019-02-05T22:42:36.227Z,41.50
2019-02-05T22:45:05.703Z,46.23
2019-02-05T22:47:32.138Z,44.98
2019-02-05T22:49:58.524Z,45.90
2019-02-05T22:52:25.970Z,53.40
2019-02-05T22:54:52.421Z,45.17
2019-02-05T22:57:18.804Z,49.13
2019-02-05T22:59:45.083Z,42.00
2019-02-05T23:02:11.548Z,45.40
2019-02-05T23:04:50.140Z,40.90
2019-02-05T23:07:09.698Z,47.60
2019-02-05T23:09:45.780Z,41.73
2019-02-05T23:12:15.800Z,44.03
2019-02-05T23:14:45.262Z,42.53
2019-02-05T23:17:11.715Z,45.55
2019-02-05T23:19:38.237Z,44.67
2019-02-05T23:22:04.737Z,46.53
2019-02-05T23:24:31.112Z,50.08
2019-02-05T23:26:57.573Z,34.67
2019-02-05T23:29:23.851Z,47.40
2019-02-05T23:31:50.217Z,46.53
2019-02-05T23:34:16.974Z,38.83
2019-02-05T23:36:43.457Z,37.15
2019-02-05T23:39:10.555Z,37.05
2019-02-05T23:41:36.927Z,41.05
2019-02-05T23:44:03.584Z,41.77
2019-02-05T23:46:29.862Z,44.45
2019-02-05T23:48:56.312Z,40.83
2019-02-05T23:51:22.777Z,46.58
2019-02-05T23:53:49.425Z,40.70
2019-02-05T23:56:25.451Z,46.23
2019-02-05T23:58:44.082Z,43.70
